Miles, IA

4:46 PM CDT on March 29, 2015 (GMT -0500)
Tri-Township | | Change Station
CLOSE
Current Station
Airport
Location: Savanna,
Elevation: 617 ft
Nearby Weather Stations
Active Advisory: Special Statement

Elev 617 ft 42.05 °N, 90.11 °W | Updated 11 minutes ago

Mostly Cloudy
Mostly Cloudy
53 °F
Feels Like 53 °F
N
13
Wind Variable Wind from SW
Gusts 18 mph

Today
High -- | Low -- °F
--% Chance of Precip.
Yesterday
High -- | Low -- °F
Precip. -- in
6:49 AM 7:23 PM
Waxing Gibbous, 74% visible
Pressure 29.74 in
Visibility 10.0 miles
Clouds Mostly Cloudy 4500 ft
Overcast 5500 ft
Dew Point 41 °F
Humidity 64%
Rainfall 0.07 in
Snow Depth Not available.
UV 1 out of 12
Pollen 4.50 out of 12
Air Quality Not available.
Flu Activity Not available.
METAR KSFY 292135Z AUTO 22011G16KT 10SM BKN045 OVC055 12/05 A2974 RMK AO2 T01170052

More Conditions Fewer Conditions

Pressure 29.74 in
Visibility 10.0 miles
Clouds Mostly Cloudy 4500 ft
Overcast 5500 ft
Dew Point 41 °F
Humidity 64%
Rainfall 0.07 in
Snow Depth Not available.
UV 1 out of 12
Pollen 4.50 out of 12
Air Quality Not available.
Flu Activity Not available.
METAR KSFY 292135Z AUTO 22011G16KT 10SM BKN045 OVC055 12/05 A2974 RMK AO2 T01170052

More Conditions Fewer Conditions

10-Day Weather Forecast

Almanac

Astronomy

Mar. 29, 2015 Rise Set
Actual Time
Civil Twilight
Nautical Twilight
Astronomical Twilight
Moon
Length of Visible Light
Length of Day
Tomorrow will be .
, % of the Moon is Illuminated

Today's Extremes

State Highs State Lows

Community

WunderPhotos

Upload Photos

1,809,364 photos uploaded!

WunderBlogs® & News

Nearby

Air Quality

  Air Quality AQ Index Pollutant
Not available.

Snow Depth

Station Depth Elevation

Earthquake Activity

City Distance Mag. Time & Date
Minimum magnitude displayed is 2.5.

Coastal Water Temperatures

Place Temperature

Stations

Nearby Weather Stations

Station Location Temp. Windchill Dew Point Humidity Wind Precip. Elev Updated Type
                   
Special Statement
Statement as of 2:19 PM CDT on March 29, 2015

... Strong west winds this afternoon...

A front moving through the region will change the strong south
winds to strong west winds the rest of this afternoon. Winds
sustained between 20 to 30 mph will gust to 40 to 45 mph through 6
PM from the west. As the winds switch... temperatures will rapidly
rise to the upper 50s to near 60. This will temporary create an
enhanced threat for grass fires through sunset.

Drivers of high profile vehicles will need to prepare for
challenging driving conditions... especially on north to south roads
this afternoon.


Ervin